Airport details for: LEST (Spain)

Metar

LEST 170200Z VRB02KT 9000 RA FEW003 SCT012CB BKN015 12/12 Q1018 TEMPO 3000 RA BKN005

General details

ICAO: LEST
IATA: SCQ
Name (city): Santiago
Major:
Country: Spain
vACC: vACC Spain
Description:

Santiago de Compostela Airport LEST

Santiago de Compostela Airport (Galician: Aeroporto de Santiago de Compostela, Spanish: Aeropuerto de Santiago de Compostela) (IATA: SCQ, ICAO: LEST) is one of the three international airports in Galicia, Spain. It is located in Lavacolla, a town 16 km far from Galicia's capital city, Santiago de Compostela. In 2011, 2.464.431 passengers passed through it.

The Christian pilgrimage route of the Way of St. James (El Camino de Santiago) passes by the airport.

Scenery links:
FS9 scenery:
FSX/P3D scenery:
XP scenery:
Elevation: 1213 ft.
Transition altitude: 6000 ft.
MSA: 10400 ft.
Latitude: 42.896389
Longitude: -8.415278
LEST Charts
LEST Notams
LEST Online stations

Runways

Number Course Length Elevation Lat Lon ILS ILS freq ILS FAC GP
17 170° 10499ft / 3200 m 1170ft 42.910753 -8.419978 110.3 170° 3.0°
35 350° 10499ft / 3200 m 1196ft 42.883822 -8.41095 111.5 350° 3.0°